sensor_id;sensor_type;location;lat;lon;timestamp;P1;durP1;ratioP1;P2;durP2;ratioP2
71172;SDS011;58875;51.996;4.504;2023-09-18T00:00:01;28.87;;;28.72;;
71172;SDS011;58875;51.996;4.504;2023-09-18T00:02:30;28.57;;;28.20;;
71172;SDS011;58875;51.996;4.504;2023-09-18T00:04:56;29.25;;;29.02;;
71172;SDS011;58875;51.996;4.504;2023-09-18T00:07:22;28.18;;;28.01;;
71172;SDS011;58875;51.996;4.504;2023-09-18T00:09:47;27.93;;;27.40;;
71172;SDS011;58875;51.996;4.504;2023-09-18T00:12:14;27.56;;;27.22;;
71172;SDS011;58875;51.996;4.504;2023-09-18T00:14:39;27.66;;;27.49;;
71172;SDS011;58875;51.996;4.504;2023-09-18T00:17:06;27.53;;;27.03;;
71172;SDS011;58875;51.996;4.504;2023-09-18T00:19:32;27.86;;;27.50;;
71172;SDS011;58875;51.996;4.504;2023-09-18T00:21:59;27.52;;;27.28;;
71172;SDS011;58875;51.996;4.504;2023-09-18T00:24:26;26.61;;;26.53;;
71172;SDS011;58875;51.996;4.504;2023-09-18T00:26:52;27.11;;;26.93;;
71172;SDS011;58875;51.996;4.504;2023-09-18T00:29:18;27.73;;;27.48;;
71172;SDS011;58875;51.996;4.504;2023-09-18T00:31:44;27.29;;;27.23;;
71172;SDS011;58875;51.996;4.504;2023-09-18T00:34:09;27.00;;;26.77;;
71172;SDS011;58875;51.996;4.504;2023-09-18T00:36:35;26.99;;;26.65;;
71172;SDS011;58875;51.996;4.504;2023-09-18T00:39:00;27.21;;;27.21;;
71172;SDS011;58875;51.996;4.504;2023-09-18T00:41:27;26.39;;;26.31;;
71172;SDS011;58875;51.996;4.504;2023-09-18T00:43:52;27.91;;;27.63;;
71172;SDS011;58875;51.996;4.504;2023-09-18T00:46:18;27.73;;;27.42;;
71172;SDS011;58875;51.996;4.504;2023-09-18T00:48:46;27.39;;;27.36;;
71172;SDS011;58875;51.996;4.504;2023-09-18T00:51:12;27.25;;;27.18;;
71172;SDS011;58875;51.996;4.504;2023-09-18T00:53:41;27.54;;;27.06;;
71172;SDS011;58875;51.996;4.504;2023-09-18T00:56:10;26.47;;;26.37;;
71172;SDS011;58875;51.996;4.504;2023-09-18T00:58:37;26.82;;;26.76;;
71172;SDS011;58875;51.996;4.504;2023-09-18T01:01:03;27.28;;;27.24;;
71172;SDS011;58875;51.996;4.504;2023-09-18T01:03:29;27.60;;;27.20;;
71172;SDS011;58875;51.996;4.504;2023-09-18T01:05:55;27.22;;;26.88;;
71172;SDS011;58875;51.996;4.504;2023-09-18T01:08:22;26.97;;;26.77;;
71172;SDS011;58875;51.996;4.504;2023-09-18T01:10:51;26.97;;;26.84;;
71172;SDS011;58875;51.996;4.504;2023-09-18T01:13:25;26.68;;;26.68;;
71172;SDS011;58875;51.996;4.504;2023-09-18T01:16:13;26.15;;;26.15;;
71172;SDS011;58875;51.996;4.504;2023-09-18T01:18:50;26.08;;;25.99;;
71172;SDS011;58875;51.996;4.504;2023-09-18T01:21:18;25.56;;;25.54;;
71172;SDS011;58875;51.996;4.504;2023-09-18T01:23:45;26.48;;;26.31;;
71172;SDS011;58875;51.996;4.504;2023-09-18T01:26:11;26.51;;;26.50;;
71172;SDS011;58875;51.996;4.504;2023-09-18T01:28:36;26.04;;;26.04;;
71172;SDS011;58875;51.996;4.504;2023-09-18T01:31:02;26.53;;;26.46;;
71172;SDS011;58875;51.996;4.504;2023-09-18T01:33:28;25.66;;;25.55;;
71172;SDS011;58875;51.996;4.504;2023-09-18T01:35:55;25.89;;;25.73;;
71172;SDS011;58875;51.996;4.504;2023-09-18T01:38:24;25.94;;;25.94;;
71172;SDS011;58875;51.996;4.504;2023-09-18T01:40:52;25.86;;;25.72;;
71172;SDS011;58875;51.996;4.504;2023-09-18T01:43:20;25.99;;;25.88;;
71172;SDS011;58875;51.996;4.504;2023-09-18T01:45:46;25.83;;;25.83;;
71172;SDS011;58875;51.996;4.504;2023-09-18T01:48:13;24.78;;;24.70;;
71172;SDS011;58875;51.996;4.504;2023-09-18T01:50:38;25.10;;;24.79;;
71172;SDS011;58875;51.996;4.504;2023-09-18T01:53:07;25.09;;;24.82;;
71172;SDS011;58875;51.996;4.504;2023-09-18T01:55:33;24.13;;;24.05;;
71172;SDS011;58875;51.996;4.504;2023-09-18T01:57:58;24.35;;;24.35;;
71172;SDS011;58875;51.996;4.504;2023-09-18T02:00:24;23.62;;;23.62;;
71172;SDS011;58875;51.996;4.504;2023-09-18T02:02:50;23.28;;;23.26;;
71172;SDS011;58875;51.996;4.504;2023-09-18T02:05:16;24.19;;;24.10;;
71172;SDS011;58875;51.996;4.504;2023-09-18T02:07:41;23.72;;;23.70;;
71172;SDS011;58875;51.996;4.504;2023-09-18T02:10:07;22.85;;;22.84;;
71172;SDS011;58875;51.996;4.504;2023-09-18T02:12:33;22.87;;;22.87;;
71172;SDS011;58875;51.996;4.504;2023-09-18T02:14:58;23.09;;;23.09;;
71172;SDS011;58875;51.996;4.504;2023-09-18T02:17:26;22.42;;;22.39;;
71172;SDS011;58875;51.996;4.504;2023-09-18T02:19:51;22.17;;;22.15;;
71172;SDS011;58875;51.996;4.504;2023-09-18T02:22:17;22.10;;;22.09;;
71172;SDS011;58875;51.996;4.504;2023-09-18T02:24:42;22.01;;;22.01;;
71172;SDS011;58875;51.996;4.504;2023-09-18T02:27:08;22.47;;;22.24;;
71172;SDS011;58875;51.996;4.504;2023-09-18T02:29:33;21.71;;;21.57;;
71172;SDS011;58875;51.996;4.504;2023-09-18T02:31:59;21.04;;;21.04;;
71172;SDS011;58875;51.996;4.504;2023-09-18T02:34:25;21.06;;;21.06;;
71172;SDS011;58875;51.996;4.504;2023-09-18T02:36:50;19.41;;;19.41;;
71172;SDS011;58875;51.996;4.504;2023-09-18T02:39:15;19.32;;;19.32;;
71172;SDS011;58875;51.996;4.504;2023-09-18T02:41:41;19.35;;;19.35;;
71172;SDS011;58875;51.996;4.504;2023-09-18T02:44:07;19.39;;;19.38;;
71172;SDS011;58875;51.996;4.504;2023-09-18T02:46:32;18.82;;;18.82;;
71172;SDS011;58875;51.996;4.504;2023-09-18T02:48:58;18.58;;;18.52;;
71172;SDS011;58875;51.996;4.504;2023-09-18T02:51:23;18.84;;;18.70;;
71172;SDS011;58875;51.996;4.504;2023-09-18T02:53:49;18.35;;;18.35;;
71172;SDS011;58875;51.996;4.504;2023-09-18T02:56:14;18.35;;;18.35;;
71172;SDS011;58875;51.996;4.504;2023-09-18T02:58:40;17.74;;;17.74;;
71172;SDS011;58875;51.996;4.504;2023-09-18T03:01:06;18.08;;;18.02;;
71172;SDS011;58875;51.996;4.504;2023-09-18T03:03:33;17.94;;;17.94;;
71172;SDS011;58875;51.996;4.504;2023-09-18T03:06:02;17.72;;;17.72;;
71172;SDS011;58875;51.996;4.504;2023-09-18T03:08:30;17.34;;;17.34;;
71172;SDS011;58875;51.996;4.504;2023-09-18T03:10:56;17.50;;;17.50;;
71172;SDS011;58875;51.996;4.504;2023-09-18T03:13:22;18.25;;;18.25;;
71172;SDS011;58875;51.996;4.504;2023-09-18T03:15:48;17.70;;;17.70;;
71172;SDS011;58875;51.996;4.504;2023-09-18T03:18:13;18.01;;;18.01;;
71172;SDS011;58875;51.996;4.504;2023-09-18T03:20:39;17.56;;;17.56;;
71172;SDS011;58875;51.996;4.504;2023-09-18T03:23:05;17.67;;;17.63;;
71172;SDS011;58875;51.996;4.504;2023-09-18T03:25:31;18.44;;;18.37;;
71172;SDS011;58875;51.996;4.504;2023-09-18T03:27:57;17.34;;;17.34;;
71172;SDS011;58875;51.996;4.504;2023-09-18T03:30:23;17.70;;;17.70;;
71172;SDS011;58875;51.996;4.504;2023-09-18T03:32:50;17.64;;;17.64;;
71172;SDS011;58875;51.996;4.504;2023-09-18T03:35:16;17.23;;;17.23;;
71172;SDS011;58875;51.996;4.504;2023-09-18T03:37:46;17.31;;;17.31;;
71172;SDS011;58875;51.996;4.504;2023-09-18T03:40:13;16.84;;;16.84;;
71172;SDS011;58875;51.996;4.504;2023-09-18T03:42:41;16.76;;;16.72;;
71172;SDS011;58875;51.996;4.504;2023-09-18T03:45:07;16.73;;;16.73;;
71172;SDS011;58875;51.996;4.504;2023-09-18T03:47:34;16.59;;;16.59;;
71172;SDS011;58875;51.996;4.504;2023-09-18T03:50:01;16.00;;;15.93;;
71172;SDS011;58875;51.996;4.504;2023-09-18T03:52:27;15.57;;;15.57;;
71172;SDS011;58875;51.996;4.504;2023-09-18T03:54:53;15.36;;;15.26;;
71172;SDS011;58875;51.996;4.504;2023-09-18T03:57:18;12.88;;;12.75;;
71172;SDS011;58875;51.996;4.504;2023-09-18T03:59:44;10.53;;;10.53;;
71172;SDS011;58875;51.996;4.504;2023-09-18T04:02:10;10.57;;;10.57;;
71172;SDS011;58875;51.996;4.504;2023-09-18T04:04:35;9.51;;;9.51;;
71172;SDS011;58875;51.996;4.504;2023-09-18T04:07:04;9.26;;;9.24;;
71172;SDS011;58875;51.996;4.504;2023-09-18T04:09:31;8.43;;;8.43;;
71172;SDS011;58875;51.996;4.504;2023-09-18T04:11:56;8.32;;;8.32;;
71172;SDS011;58875;51.996;4.504;2023-09-18T04:14:22;7.52;;;7.52;;
71172;SDS011;58875;51.996;4.504;2023-09-18T04:16:48;7.88;;;7.88;;
71172;SDS011;58875;51.996;4.504;2023-09-18T04:19:13;8.35;;;8.35;;
71172;SDS011;58875;51.996;4.504;2023-09-18T04:21:39;8.01;;;8.01;;
71172;SDS011;58875;51.996;4.504;2023-09-18T04:24:04;8.81;;;8.81;;
71172;SDS011;58875;51.996;4.504;2023-09-18T04:26:30;9.08;;;9.08;;
71172;SDS011;58875;51.996;4.504;2023-09-18T04:28:59;9.26;;;9.26;;
71172;SDS011;58875;51.996;4.504;2023-09-18T04:31:26;9.30;;;9.30;;
71172;SDS011;58875;51.996;4.504;2023-09-18T04:33:52;9.57;;;9.57;;
71172;SDS011;58875;51.996;4.504;2023-09-18T04:36:18;10.03;;;10.03;;
71172;SDS011;58875;51.996;4.504;2023-09-18T04:38:44;9.80;;;9.80;;
71172;SDS011;58875;51.996;4.504;2023-09-18T04:41:09;10.30;;;10.30;;
71172;SDS011;58875;51.996;4.504;2023-09-18T04:43:42;10.32;;;10.32;;
71172;SDS011;58875;51.996;4.504;2023-09-18T04:46:08;10.32;;;10.32;;
71172;SDS011;58875;51.996;4.504;2023-09-18T04:48:34;10.40;;;10.40;;
71172;SDS011;58875;51.996;4.504;2023-09-18T04:51:05;10.31;;;10.31;;
71172;SDS011;58875;51.996;4.504;2023-09-18T04:53:31;10.47;;;10.47;;
71172;SDS011;58875;51.996;4.504;2023-09-18T04:55:57;10.70;;;10.70;;
71172;SDS011;58875;51.996;4.504;2023-09-18T04:58:23;11.56;;;11.56;;
71172;SDS011;58875;51.996;4.504;2023-09-18T05:00:55;14.77;;;14.77;;
71172;SDS011;58875;51.996;4.504;2023-09-18T05:03:22;12.85;;;12.85;;
71172;SDS011;58875;51.996;4.504;2023-09-18T05:05:48;11.99;;;11.99;;
71172;SDS011;58875;51.996;4.504;2023-09-18T05:08:14;10.98;;;10.98;;
71172;SDS011;58875;51.996;4.504;2023-09-18T05:10:40;10.98;;;10.98;;
71172;SDS011;58875;51.996;4.504;2023-09-18T05:13:06;11.33;;;11.33;;
71172;SDS011;58875;51.996;4.504;2023-09-18T05:15:32;12.23;;;12.23;;
71172;SDS011;58875;51.996;4.504;2023-09-18T05:17:58;12.20;;;12.20;;
71172;SDS011;58875;51.996;4.504;2023-09-18T05:20:26;12.62;;;12.62;;
71172;SDS011;58875;51.996;4.504;2023-09-18T05:22:53;12.82;;;12.82;;
71172;SDS011;58875;51.996;4.504;2023-09-18T05:25:21;13.42;;;13.42;;
71172;SDS011;58875;51.996;4.504;2023-09-18T05:27:49;13.85;;;13.85;;
71172;SDS011;58875;51.996;4.504;2023-09-18T05:30:21;14.19;;;14.17;;
71172;SDS011;58875;51.996;4.504;2023-09-18T05:32:50;13.34;;;13.34;;
71172;SDS011;58875;51.996;4.504;2023-09-18T05:35:16;13.52;;;13.51;;
71172;SDS011;58875;51.996;4.504;2023-09-18T05:37:42;14.00;;;13.97;;
71172;SDS011;58875;51.996;4.504;2023-09-18T05:40:10;13.80;;;13.80;;
71172;SDS011;58875;51.996;4.504;2023-09-18T05:42:38;14.34;;;14.25;;
71172;SDS011;58875;51.996;4.504;2023-09-18T05:45:08;14.56;;;14.56;;
71172;SDS011;58875;51.996;4.504;2023-09-18T05:47:34;14.49;;;14.39;;
71172;SDS011;58875;51.996;4.504;2023-09-18T05:50:04;14.30;;;14.30;;
71172;SDS011;58875;51.996;4.504;2023-09-18T05:52:32;14.04;;;14.04;;
71172;SDS011;58875;51.996;4.504;2023-09-18T05:54:58;14.38;;;14.38;;
71172;SDS011;58875;51.996;4.504;2023-09-18T05:57:25;14.13;;;14.13;;
71172;SDS011;58875;51.996;4.504;2023-09-18T05:59:52;14.16;;;14.16;;
71172;SDS011;58875;51.996;4.504;2023-09-18T06:02:21;13.88;;;13.88;;
71172;SDS011;58875;51.996;4.504;2023-09-18T06:04:48;14.59;;;14.59;;
71172;SDS011;58875;51.996;4.504;2023-09-18T06:07:13;14.29;;;14.29;;
71172;SDS011;58875;51.996;4.504;2023-09-18T06:09:40;13.87;;;13.87;;
71172;SDS011;58875;51.996;4.504;2023-09-18T06:12:06;14.18;;;14.18;;
71172;SDS011;58875;51.996;4.504;2023-09-18T06:14:32;14.30;;;14.30;;
71172;SDS011;58875;51.996;4.504;2023-09-18T06:17:02;14.45;;;14.43;;
71172;SDS011;58875;51.996;4.504;2023-09-18T06:19:28;13.79;;;13.77;;
71172;SDS011;58875;51.996;4.504;2023-09-18T06:24:22;13.18;;;13.18;;
71172;SDS011;58875;51.996;4.504;2023-09-18T06:26:47;12.96;;;12.96;;
71172;SDS011;58875;51.996;4.504;2023-09-18T06:29:13;13.15;;;13.05;;
71172;SDS011;58875;51.996;4.504;2023-09-18T06:31:38;11.95;;;11.95;;
71172;SDS011;58875;51.996;4.504;2023-09-18T06:34:04;11.65;;;11.59;;
71172;SDS011;58875;51.996;4.504;2023-09-18T06:36:30;11.26;;;11.26;;
71172;SDS011;58875;51.996;4.504;2023-09-18T06:38:55;10.69;;;10.69;;
71172;SDS011;58875;51.996;4.504;2023-09-18T06:41:21;10.77;;;10.77;;
71172;SDS011;58875;51.996;4.504;2023-09-18T06:43:46;10.72;;;10.72;;
71172;SDS011;58875;51.996;4.504;2023-09-18T06:46:12;10.22;;;10.22;;
71172;SDS011;58875;51.996;4.504;2023-09-18T06:48:37;9.26;;;9.26;;
71172;SDS011;58875;51.996;4.504;2023-09-18T06:51:03;8.59;;;8.59;;
71172;SDS011;58875;51.996;4.504;2023-09-18T06:53:28;7.81;;;7.81;;
71172;SDS011;58875;51.996;4.504;2023-09-18T06:55:54;7.11;;;7.11;;
71172;SDS011;58875;51.996;4.504;2023-09-18T06:58:20;7.11;;;7.11;;
71172;SDS011;58875;51.996;4.504;2023-09-18T07:00:46;6.16;;;6.16;;
71172;SDS011;58875;51.996;4.504;2023-09-18T07:03:12;5.78;;;5.76;;
71172;SDS011;58875;51.996;4.504;2023-09-18T07:05:39;6.07;;;6.02;;
71172;SDS011;58875;51.996;4.504;2023-09-18T07:08:05;5.96;;;5.96;;
71172;SDS011;58875;51.996;4.504;2023-09-18T07:10:35;6.64;;;6.64;;
71172;SDS011;58875;51.996;4.504;2023-09-18T07:13:03;6.65;;;6.65;;
71172;SDS011;58875;51.996;4.504;2023-09-18T07:15:29;7.56;;;7.54;;
71172;SDS011;58875;51.996;4.504;2023-09-18T07:17:55;7.26;;;7.26;;
71172;SDS011;58875;51.996;4.504;2023-09-18T07:20:20;7.16;;;7.16;;
71172;SDS011;58875;51.996;4.504;2023-09-18T07:22:47;6.83;;;6.83;;
71172;SDS011;58875;51.996;4.504;2023-09-18T07:25:13;6.34;;;6.34;;
71172;SDS011;58875;51.996;4.504;2023-09-18T07:27:39;6.84;;;6.83;;
71172;SDS011;58875;51.996;4.504;2023-09-18T07:30:09;6.47;;;6.47;;
71172;SDS011;58875;51.996;4.504;2023-09-18T07:32:36;5.96;;;5.96;;
71172;SDS011;58875;51.996;4.504;2023-09-18T07:35:02;5.79;;;5.79;;
71172;SDS011;58875;51.996;4.504;2023-09-18T07:37:39;6.02;;;6.02;;
71172;SDS011;58875;51.996;4.504;2023-09-18T07:40:05;5.55;;;5.55;;
71172;SDS011;58875;51.996;4.504;2023-09-18T07:42:31;5.53;;;5.53;;
71172;SDS011;58875;51.996;4.504;2023-09-18T07:44:58;5.47;;;5.47;;
71172;SDS011;58875;51.996;4.504;2023-09-18T07:47:24;5.32;;;5.32;;
71172;SDS011;58875;51.996;4.504;2023-09-18T07:49:50;5.02;;;5.02;;
71172;SDS011;58875;51.996;4.504;2023-09-18T07:52:19;4.98;;;4.98;;
71172;SDS011;58875;51.996;4.504;2023-09-18T07:54:44;5.19;;;5.19;;
71172;SDS011;58875;51.996;4.504;2023-09-18T07:57:10;5.04;;;5.04;;
71172;SDS011;58875;51.996;4.504;2023-09-18T07:59:36;5.16;;;5.15;;
71172;SDS011;58875;51.996;4.504;2023-09-18T08:02:06;4.85;;;4.85;;
71172;SDS011;58875;51.996;4.504;2023-09-18T08:04:34;4.88;;;4.88;;
71172;SDS011;58875;51.996;4.504;2023-09-18T08:06:59;4.81;;;4.81;;
71172;SDS011;58875;51.996;4.504;2023-09-18T08:09:25;4.72;;;4.72;;
71172;SDS011;58875;51.996;4.504;2023-09-18T08:11:54;4.67;;;4.67;;
71172;SDS011;58875;51.996;4.504;2023-09-18T08:14:21;5.24;;;5.23;;
71172;SDS011;58875;51.996;4.504;2023-09-18T08:16:47;4.80;;;4.76;;
71172;SDS011;58875;51.996;4.504;2023-09-18T08:19:16;4.89;;;4.89;;
71172;SDS011;58875;51.996;4.504;2023-09-18T08:21:45;4.80;;;4.80;;
71172;SDS011;58875;51.996;4.504;2023-09-18T08:24:11;5.27;;;5.27;;
71172;SDS011;58875;51.996;4.504;2023-09-18T08:26:37;5.20;;;5.20;;
71172;SDS011;58875;51.996;4.504;2023-09-18T08:29:03;5.30;;;5.30;;
71172;SDS011;58875;51.996;4.504;2023-09-18T08:31:28;5.63;;;5.63;;
71172;SDS011;58875;51.996;4.504;2023-09-18T08:33:56;5.76;;;5.76;;
71172;SDS011;58875;51.996;4.504;2023-09-18T08:36:22;5.91;;;5.91;;
71172;SDS011;58875;51.996;4.504;2023-09-18T08:38:48;5.49;;;5.49;;
71172;SDS011;58875;51.996;4.504;2023-09-18T08:41:13;5.47;;;5.47;;
71172;SDS011;58875;51.996;4.504;2023-09-18T08:43:45;5.27;;;5.27;;
71172;SDS011;58875;51.996;4.504;2023-09-18T08:46:14;4.90;;;4.90;;
71172;SDS011;58875;51.996;4.504;2023-09-18T08:48:40;4.69;;;4.69;;
71172;SDS011;58875;51.996;4.504;2023-09-18T08:51:07;4.77;;;4.77;;
71172;SDS011;58875;51.996;4.504;2023-09-18T08:53:35;4.58;;;4.58;;
71172;SDS011;58875;51.996;4.504;2023-09-18T08:56:02;4.76;;;4.76;;
71172;SDS011;58875;51.996;4.504;2023-09-18T08:58:31;4.64;;;4.64;;
71172;SDS011;58875;51.996;4.504;2023-09-18T09:01:05;4.45;;;4.45;;
71172;SDS011;58875;51.996;4.504;2023-09-18T09:03:41;4.78;;;4.78;;
71172;SDS011;58875;51.996;4.504;2023-09-18T09:06:08;4.99;;;4.99;;
71172;SDS011;58875;51.996;4.504;2023-09-18T09:08:34;5.54;;;5.54;;
71172;SDS011;58875;51.996;4.504;2023-09-18T09:11:01;5.32;;;5.32;;
71172;SDS011;58875;51.996;4.504;2023-09-18T09:13:28;5.47;;;5.47;;
71172;SDS011;58875;51.996;4.504;2023-09-18T09:15:54;5.19;;;5.19;;
71172;SDS011;58875;51.996;4.504;2023-09-18T09:18:24;5.39;;;5.39;;
71172;SDS011;58875;51.996;4.504;2023-09-18T09:20:55;5.18;;;5.18;;
71172;SDS011;58875;51.996;4.504;2023-09-18T09:23:28;5.24;;;5.24;;
71172;SDS011;58875;51.996;4.504;2023-09-18T09:26:13;5.48;;;5.48;;
71172;SDS011;58875;51.996;4.504;2023-09-18T09:28:42;4.93;;;4.93;;
71172;SDS011;58875;51.996;4.504;2023-09-18T09:31:09;5.22;;;5.22;;
71172;SDS011;58875;51.996;4.504;2023-09-18T09:33:35;5.38;;;5.38;;
71172;SDS011;58875;51.996;4.504;2023-09-18T09:36:06;5.45;;;5.45;;
71172;SDS011;58875;51.996;4.504;2023-09-18T09:38:33;5.80;;;5.80;;
71172;SDS011;58875;51.996;4.504;2023-09-18T09:41:00;6.44;;;6.44;;
71172;SDS011;58875;51.996;4.504;2023-09-18T09:43:27;6.25;;;6.25;;
71172;SDS011;58875;51.996;4.504;2023-09-18T09:45:59;5.96;;;5.96;;
71172;SDS011;58875;51.996;4.504;2023-09-18T09:48:25;5.51;;;5.51;;
71172;SDS011;58875;51.996;4.504;2023-09-18T09:50:51;5.71;;;5.71;;
71172;SDS011;58875;51.996;4.504;2023-09-18T09:56:16;5.79;;;5.79;;
71172;SDS011;58875;51.996;4.504;2023-09-18T09:59:05;5.80;;;5.80;;
71172;SDS011;58875;51.996;4.504;2023-09-18T10:01:34;5.61;;;5.61;;
71172;SDS011;58875;51.996;4.504;2023-09-18T10:04:04;5.57;;;5.57;;
71172;SDS011;58875;51.996;4.504;2023-09-18T10:06:34;6.13;;;6.13;;
71172;SDS011;58875;51.996;4.504;2023-09-18T10:09:04;6.16;;;6.16;;
71172;SDS011;58875;51.996;4.504;2023-09-18T10:11:33;6.51;;;6.51;;
71172;SDS011;58875;51.996;4.504;2023-09-18T10:14:07;6.41;;;6.41;;
71172;SDS011;58875;51.996;4.504;2023-09-18T10:16:39;6.32;;;6.32;;
71172;SDS011;58875;51.996;4.504;2023-09-18T10:24:22;7.09;;;7.09;;
71172;SDS011;58875;51.996;4.504;2023-09-18T10:29:20;6.25;;;6.25;;
71172;SDS011;58875;51.996;4.504;2023-09-18T10:31:52;6.16;;;6.16;;
71172;SDS011;58875;51.996;4.504;2023-09-18T10:34:19;5.53;;;5.53;;
71172;SDS011;58875;51.996;4.504;2023-09-18T10:36:48;6.03;;;6.03;;
71172;SDS011;58875;51.996;4.504;2023-09-18T10:39:16;6.05;;;6.05;;
71172;SDS011;58875;51.996;4.504;2023-09-18T10:41:49;5.36;;;5.36;;
71172;SDS011;58875;51.996;4.504;2023-09-18T10:44:17;5.77;;;5.77;;
71172;SDS011;58875;51.996;4.504;2023-09-18T10:46:47;5.69;;;5.69;;
71172;SDS011;58875;51.996;4.504;2023-09-18T10:49:17;5.40;;;5.40;;
71172;SDS011;58875;51.996;4.504;2023-09-18T10:51:43;5.29;;;5.29;;
71172;SDS011;58875;51.996;4.504;2023-09-18T10:54:11;5.47;;;5.47;;
71172;SDS011;58875;51.996;4.504;2023-09-18T10:56:44;5.45;;;5.45;;
71172;SDS011;58875;51.996;4.504;2023-09-18T10:59:10;5.18;;;5.18;;
71172;SDS011;58875;51.996;4.504;2023-09-18T11:01:37;5.23;;;5.23;;
71172;SDS011;58875;51.996;4.504;2023-09-18T11:04:06;4.82;;;4.82;;
71172;SDS011;58875;51.996;4.504;2023-09-18T11:09:25;4.67;;;4.67;;
71172;SDS011;58875;51.996;4.504;2023-09-18T11:11:53;4.65;;;4.65;;
71172;SDS011;58875;51.996;4.504;2023-09-18T11:14:44;5.05;;;5.05;;
71172;SDS011;58875;51.996;4.504;2023-09-18T11:17:35;4.71;;;4.71;;
71172;SDS011;58875;51.996;4.504;2023-09-18T11:20:09;4.70;;;4.70;;
71172;SDS011;58875;51.996;4.504;2023-09-18T11:22:49;5.04;;;5.04;;
71172;SDS011;58875;51.996;4.504;2023-09-18T11:25:42;5.59;;;5.32;;
71172;SDS011;58875;51.996;4.504;2023-09-18T11:28:23;5.37;;;5.37;;
71172;SDS011;58875;51.996;4.504;2023-09-18T11:30:54;5.34;;;5.34;;
71172;SDS011;58875;51.996;4.504;2023-09-18T11:36:06;6.02;;;6.02;;
71172;SDS011;58875;51.996;4.504;2023-09-18T11:41:29;6.45;;;6.45;;
71172;SDS011;58875;51.996;4.504;2023-09-18T11:46:32;6.30;;;6.30;;
71172;SDS011;58875;51.996;4.504;2023-09-18T11:48:58;7.05;;;7.05;;
71172;SDS011;58875;51.996;4.504;2023-09-18T11:51:25;7.59;;;7.59;;
71172;SDS011;58875;51.996;4.504;2023-09-18T11:53:53;6.78;;;6.78;;
71172;SDS011;58875;51.996;4.504;2023-09-18T11:56:21;6.29;;;6.29;;
71172;SDS011;58875;51.996;4.504;2023-09-18T11:58:47;6.72;;;6.72;;
71172;SDS011;58875;51.996;4.504;2023-09-18T12:01:15;6.66;;;6.66;;
71172;SDS011;58875;51.996;4.504;2023-09-18T12:03:41;6.42;;;6.42;;
71172;SDS011;58875;51.996;4.504;2023-09-18T12:06:07;6.27;;;6.27;;
71172;SDS011;58875;51.996;4.504;2023-09-18T12:08:37;6.57;;;6.57;;
71172;SDS011;58875;51.996;4.504;2023-09-18T12:11:05;6.30;;;6.30;;
71172;SDS011;58875;51.996;4.504;2023-09-18T12:13:31;6.19;;;6.19;;
71172;SDS011;58875;51.996;4.504;2023-09-18T12:16:02;5.97;;;5.97;;
71172;SDS011;58875;51.996;4.504;2023-09-18T12:18:34;5.98;;;5.98;;
71172;SDS011;58875;51.996;4.504;2023-09-18T12:21:05;6.28;;;6.28;;
71172;SDS011;58875;51.996;4.504;2023-09-18T12:23:37;6.20;;;6.20;;
71172;SDS011;58875;51.996;4.504;2023-09-18T12:26:04;6.03;;;6.03;;
71172;SDS011;58875;51.996;4.504;2023-09-18T12:28:38;6.31;;;6.31;;
71172;SDS011;58875;51.996;4.504;2023-09-18T12:31:05;6.55;;;6.55;;
71172;SDS011;58875;51.996;4.504;2023-09-18T12:33:35;6.46;;;6.46;;
71172;SDS011;58875;51.996;4.504;2023-09-18T12:36:02;7.04;;;7.04;;
71172;SDS011;58875;51.996;4.504;2023-09-18T12:38:30;7.16;;;7.16;;
71172;SDS011;58875;51.996;4.504;2023-09-18T12:40:56;6.50;;;6.50;;
71172;SDS011;58875;51.996;4.504;2023-09-18T12:43:25;6.50;;;6.50;;
71172;SDS011;58875;51.996;4.504;2023-09-18T12:45:55;6.22;;;6.22;;
71172;SDS011;58875;51.996;4.504;2023-09-18T12:48:21;6.35;;;6.35;;
71172;SDS011;58875;51.996;4.504;2023-09-18T12:50:51;6.51;;;6.51;;
71172;SDS011;58875;51.996;4.504;2023-09-18T12:53:21;6.17;;;6.17;;
71172;SDS011;58875;51.996;4.504;2023-09-18T12:55:48;5.66;;;5.66;;
71172;SDS011;58875;51.996;4.504;2023-09-18T12:58:18;6.35;;;6.35;;
71172;SDS011;58875;51.996;4.504;2023-09-18T13:00:48;5.80;;;5.80;;
71172;SDS011;58875;51.996;4.504;2023-09-18T13:03:17;5.81;;;5.81;;
71172;SDS011;58875;51.996;4.504;2023-09-18T13:05:44;5.97;;;5.97;;
71172;SDS011;58875;51.996;4.504;2023-09-18T13:08:09;5.83;;;5.83;;
71172;SDS011;58875;51.996;4.504;2023-09-18T13:13:18;5.62;;;5.62;;
71172;SDS011;58875;51.996;4.504;2023-09-18T13:15:46;5.55;;;5.55;;
71172;SDS011;58875;51.996;4.504;2023-09-18T13:18:14;5.42;;;5.42;;
71172;SDS011;58875;51.996;4.504;2023-09-18T13:20:41;5.08;;;5.08;;
71172;SDS011;58875;51.996;4.504;2023-09-18T13:23:07;4.88;;;4.88;;
71172;SDS011;58875;51.996;4.504;2023-09-18T13:25:34;5.08;;;5.08;;
71172;SDS011;58875;51.996;4.504;2023-09-18T13:28:09;4.88;;;4.88;;
71172;SDS011;58875;51.996;4.504;2023-09-18T13:30:36;4.99;;;4.99;;
71172;SDS011;58875;51.996;4.504;2023-09-18T13:35:33;4.74;;;4.74;;
71172;SDS011;58875;51.996;4.504;2023-09-18T13:37:59;4.77;;;4.77;;
71172;SDS011;58875;51.996;4.504;2023-09-18T13:40:25;4.78;;;4.78;;
71172;SDS011;58875;51.996;4.504;2023-09-18T13:42:50;4.83;;;4.83;;
71172;SDS011;58875;51.996;4.504;2023-09-18T13:45:16;4.51;;;4.51;;
71172;SDS011;58875;51.996;4.504;2023-09-18T13:47:41;4.43;;;4.43;;
71172;SDS011;58875;51.996;4.504;2023-09-18T13:50:07;4.17;;;4.17;;
71172;SDS011;58875;51.996;4.504;2023-09-18T13:52:34;4.22;;;4.22;;
71172;SDS011;58875;51.996;4.504;2023-09-18T13:55:02;4.07;;;4.07;;
71172;SDS011;58875;51.996;4.504;2023-09-18T13:57:33;4.34;;;4.34;;
71172;SDS011;58875;51.996;4.504;2023-09-18T14:00:00;4.16;;;4.16;;
71172;SDS011;58875;51.996;4.504;2023-09-18T14:02:30;4.46;;;4.46;;
71172;SDS011;58875;51.996;4.504;2023-09-18T14:04:55;4.23;;;4.23;;
71172;SDS011;58875;51.996;4.504;2023-09-18T14:07:21;4.04;;;4.04;;
71172;SDS011;58875;51.996;4.504;2023-09-18T14:09:47;3.87;;;3.87;;
71172;SDS011;58875;51.996;4.504;2023-09-18T14:12:14;4.17;;;4.17;;
71172;SDS011;58875;51.996;4.504;2023-09-18T14:14:42;4.32;;;4.32;;
71172;SDS011;58875;51.996;4.504;2023-09-18T14:17:09;4.21;;;4.21;;
71172;SDS011;58875;51.996;4.504;2023-09-18T14:19:37;4.39;;;4.39;;
71172;SDS011;58875;51.996;4.504;2023-09-18T14:22:04;5.35;;;5.35;;
71172;SDS011;58875;51.996;4.504;2023-09-18T14:24:30;5.63;;;5.63;;
71172;SDS011;58875;51.996;4.504;2023-09-18T14:27:02;5.42;;;5.42;;
71172;SDS011;58875;51.996;4.504;2023-09-18T14:29:28;5.64;;;5.64;;
71172;SDS011;58875;51.996;4.504;2023-09-18T14:32:01;5.70;;;5.70;;
71172;SDS011;58875;51.996;4.504;2023-09-18T14:34:27;5.78;;;5.78;;
71172;SDS011;58875;51.996;4.504;2023-09-18T14:36:52;5.22;;;5.22;;
71172;SDS011;58875;51.996;4.504;2023-09-18T14:39:18;5.01;;;5.01;;
71172;SDS011;58875;51.996;4.504;2023-09-18T14:41:43;4.33;;;4.33;;
71172;SDS011;58875;51.996;4.504;2023-09-18T14:44:09;4.23;;;4.23;;
71172;SDS011;58875;51.996;4.504;2023-09-18T14:46:36;3.87;;;3.87;;
71172;SDS011;58875;51.996;4.504;2023-09-18T14:49:05;3.74;;;3.74;;
71172;SDS011;58875;51.996;4.504;2023-09-18T14:51:32;3.57;;;3.57;;
71172;SDS011;58875;51.996;4.504;2023-09-18T14:53:58;2.81;;;2.81;;
71172;SDS011;58875;51.996;4.504;2023-09-18T14:56:24;2.51;;;2.51;;
71172;SDS011;58875;51.996;4.504;2023-09-18T14:58:50;2.21;;;2.21;;
71172;SDS011;58875;51.996;4.504;2023-09-18T15:01:20;2.44;;;2.44;;
71172;SDS011;58875;51.996;4.504;2023-09-18T15:03:47;2.16;;;2.15;;
71172;SDS011;58875;51.996;4.504;2023-09-18T15:06:16;2.23;;;2.22;;